sensor_id;sensor_type;location;lat;lon;timestamp;temperature;humidity
4207;DHT22;2117;47.972;7.830;2022-09-01T03:30:51;14.70;99.90
4207;DHT22;2117;47.972;7.830;2022-09-01T03:33:18;14.70;99.90
4207;DHT22;2117;47.972;7.830;2022-09-01T03:35:45;14.80;99.90
4207;DHT22;2117;47.972;7.830;2022-09-01T03:38:11;14.70;99.90
4207;DHT22;2117;47.972;7.830;2022-09-01T03:40:45;14.60;99.90
4207;DHT22;2117;47.972;7.830;2022-09-01T03:43:12;14.60;99.90
4207;DHT22;2117;47.972;7.830;2022-09-01T03:45:39;14.60;99.90
4207;DHT22;2117;47.972;7.830;2022-09-01T03:48:06;14.60;99.90
4207;DHT22;2117;47.972;7.830;2022-09-01T03:50:36;14.60;99.90
4207;DHT22;2117;47.972;7.830;2022-09-01T03:53:11;14.60;99.90
4207;DHT22;2117;47.972;7.830;2022-09-01T03:55:38;14.50;99.90
4207;DHT22;2117;47.972;7.830;2022-09-01T03:58:07;14.50;99.90
4207;DHT22;2117;47.972;7.830;2022-09-01T04:00:37;14.50;99.90
4207;DHT22;2117;47.972;7.830;2022-09-01T04:03:04;14.50;99.90
4207;DHT22;2117;47.972;7.830;2022-09-01T04:05:34;14.50;99.90
4207;DHT22;2117;47.972;7.830;2022-09-01T04:08:05;14.50;99.90
4207;DHT22;2117;47.972;7.830;2022-09-01T04:10:35;14.50;99.90
4207;DHT22;2117;47.972;7.830;2022-09-01T04:13:02;14.50;99.90
4207;DHT22;2117;47.972;7.830;2022-09-01T04:15:30;14.50;99.90
4207;DHT22;2117;47.972;7.830;2022-09-01T04:17:56;14.50;99.90
4207;DHT22;2117;47.972;7.830;2022-09-01T04:20:39;14.50;99.90
4207;DHT22;2117;47.972;7.830;2022-09-01T04:26:01;14.40;99.90
4207;DHT22;2117;47.972;7.830;2022-09-01T04:28:34;14.40;99.90
4207;DHT22;2117;47.972;7.830;2022-09-01T04:31:04;14.40;99.90
4207;DHT22;2117;47.972;7.830;2022-09-01T04:33:35;14.30;99.90
4207;DHT22;2117;47.972;7.830;2022-09-01T04:36:05;14.30;99.90
4207;DHT22;2117;47.972;7.830;2022-09-01T04:38:31;14.30;99.90
4207;DHT22;2117;47.972;7.830;2022-09-01T04:41:03;14.30;99.90
4207;DHT22;2117;47.972;7.830;2022-09-01T04:43:31;14.30;99.90
4207;DHT22;2117;47.972;7.830;2022-09-01T04:45:57;14.30;99.90
4207;DHT22;2117;47.972;7.830;2022-09-01T04:48:23;14.20;99.90
4207;DHT22;2117;47.972;7.830;2022-09-01T04:50:50;14.30;99.90
4207;DHT22;2117;47.972;7.830;2022-09-01T04:53:17;14.30;99.90
4207;DHT22;2117;47.972;7.830;2022-09-01T04:55:45;14.20;99.90
4207;DHT22;2117;47.972;7.830;2022-09-01T04:58:14;14.20;99.90
4207;DHT22;2117;47.972;7.830;2022-09-01T05:00:43;14.20;99.90
4207;DHT22;2117;47.972;7.830;2022-09-01T05:03:10;14.20;99.90
4207;DHT22;2117;47.972;7.830;2022-09-01T05:05:38;14.30;99.90
4207;DHT22;2117;47.972;7.830;2022-09-01T05:08:12;14.30;99.90
4207;DHT22;2117;47.972;7.830;2022-09-01T05:10:41;14.30;99.90
4207;DHT22;2117;47.972;7.830;2022-09-01T05:13:09;14.40;99.90
4207;DHT22;2117;47.972;7.830;2022-09-01T05:15:40;14.50;99.90
4207;DHT22;2117;47.972;7.830;2022-09-01T05:18:16;14.60;99.90
4207;DHT22;2117;47.972;7.830;2022-09-01T05:20:51;14.80;99.90
4207;DHT22;2117;47.972;7.830;2022-09-01T05:23:18;15.00;99.90
4207;DHT22;2117;47.972;7.830;2022-09-01T05:25:45;15.20;99.90
4207;DHT22;2117;47.972;7.830;2022-09-01T05:28:14;15.30;99.90
4207;DHT22;2117;47.972;7.830;2022-09-01T05:30:40;15.30;99.90
4207;DHT22;2117;47.972;7.830;2022-09-01T05:33:07;15.30;99.90
4207;DHT22;2117;47.972;7.830;2022-09-01T05:35:42;15.30;99.90
4207;DHT22;2117;47.972;7.830;2022-09-01T05:38:10;15.20;99.90
4207;DHT22;2117;47.972;7.830;2022-09-01T05:40:41;15.20;99.90
4207;DHT22;2117;47.972;7.830;2022-09-01T05:43:12;15.20;99.90
4207;DHT22;2117;47.972;7.830;2022-09-01T05:45:40;15.10;99.90
4207;DHT22;2117;47.972;7.830;2022-09-01T05:48:11;15.00;99.90
4207;DHT22;2117;47.972;7.830;2022-09-01T05:50:41;14.90;99.90
4207;DHT22;2117;47.972;7.830;2022-09-01T05:53:11;14.80;99.90
4207;DHT22;2117;47.972;7.830;2022-09-01T05:55:45;14.80;99.90
4207;DHT22;2117;47.972;7.830;2022-09-01T05:58:13;14.80;99.90
4207;DHT22;2117;47.972;7.830;2022-09-01T06:00:43;14.70;99.90
4207;DHT22;2117;47.972;7.830;2022-09-01T06:03:11;14.70;99.90
4207;DHT22;2117;47.972;7.830;2022-09-01T06:05:39;14.70;99.90
4207;DHT22;2117;47.972;7.830;2022-09-01T06:08:06;14.70;99.90
4207;DHT22;2117;47.972;7.830;2022-09-01T06:10:33;14.70;99.90
4207;DHT22;2117;47.972;7.830;2022-09-01T06:12:59;14.80;99.90
4207;DHT22;2117;47.972;7.830;2022-09-01T06:15:28;14.80;99.90
4207;DHT22;2117;47.972;7.830;2022-09-01T06:17:55;14.80;99.90
4207;DHT22;2117;47.972;7.830;2022-09-01T06:20:21;14.80;99.90
4207;DHT22;2117;47.972;7.830;2022-09-01T06:22:47;14.80;99.90
4207;DHT22;2117;47.972;7.830;2022-09-01T06:25:14;14.90;99.90
4207;DHT22;2117;47.972;7.830;2022-09-01T06:27:41;14.90;99.90
4207;DHT22;2117;47.972;7.830;2022-09-01T06:30:09;14.90;99.90
4207;DHT22;2117;47.972;7.830;2022-09-01T06:32:41;15.00;99.90
4207;DHT22;2117;47.972;7.830;2022-09-01T06:35:12;15.10;99.90
4207;DHT22;2117;47.972;7.830;2022-09-01T06:37:41;15.10;99.90
4207;DHT22;2117;47.972;7.830;2022-09-01T06:40:09;15.20;99.90
4207;DHT22;2117;47.972;7.830;2022-09-01T06:42:42;15.30;99.90
4207;DHT22;2117;47.972;7.830;2022-09-01T06:45:10;15.40;99.90
4207;DHT22;2117;47.972;7.830;2022-09-01T06:47:36;15.50;99.90
4207;DHT22;2117;47.972;7.830;2022-09-01T06:50:03;15.50;99.90
4207;DHT22;2117;47.972;7.830;2022-09-01T06:52:28;15.60;99.90
4207;DHT22;2117;47.972;7.830;2022-09-01T06:54:54;15.70;99.90
4207;DHT22;2117;47.972;7.830;2022-09-01T06:57:20;15.70;99.90
4207;DHT22;2117;47.972;7.830;2022-09-01T06:59:46;15.80;99.90
4207;DHT22;2117;47.972;7.830;2022-09-01T07:02:14;15.90;99.90
4207;DHT22;2117;47.972;7.830;2022-09-01T07:04:44;16.00;99.90
4207;DHT22;2117;47.972;7.830;2022-09-01T07:07:11;16.10;99.90
4207;DHT22;2117;47.972;7.830;2022-09-01T07:09:38;16.10;99.90
4207;DHT22;2117;47.972;7.830;2022-09-01T07:12:05;16.20;99.90
4207;DHT22;2117;47.972;7.830;2022-09-01T07:14:31;16.30;99.90
4207;DHT22;2117;47.972;7.830;2022-09-01T07:16:56;16.30;99.90
4207;DHT22;2117;47.972;7.830;2022-09-01T07:19:23;16.40;99.90
4207;DHT22;2117;47.972;7.830;2022-09-01T07:21:51;16.40;99.90
4207;DHT22;2117;47.972;7.830;2022-09-01T07:24:17;16.50;99.90
4207;DHT22;2117;47.972;7.830;2022-09-01T07:26:46;16.60;99.90
4207;DHT22;2117;47.972;7.830;2022-09-01T07:29:18;16.60;99.90
4207;DHT22;2117;47.972;7.830;2022-09-01T07:31:46;16.70;99.90
4207;DHT22;2117;47.972;7.830;2022-09-01T07:34:12;16.80;99.90
4207;DHT22;2117;47.972;7.830;2022-09-01T07:36:39;16.80;99.90
4207;DHT22;2117;47.972;7.830;2022-09-01T07:39:07;16.90;99.90
4207;DHT22;2117;47.972;7.830;2022-09-01T07:41:33;17.00;99.90
4207;DHT22;2117;47.972;7.830;2022-09-01T07:44:00;17.10;99.90
4207;DHT22;2117;47.972;7.830;2022-09-01T07:46:28;17.10;99.90
4207;DHT22;2117;47.972;7.830;2022-09-01T07:48:57;17.10;99.90
4207;DHT22;2117;47.972;7.830;2022-09-01T07:51:25;17.10;99.90
4207;DHT22;2117;47.972;7.830;2022-09-01T07:53:51;17.20;99.90
4207;DHT22;2117;47.972;7.830;2022-09-01T07:56:19;17.30;99.90
4207;DHT22;2117;47.972;7.830;2022-09-01T07:58:45;17.30;99.90
4207;DHT22;2117;47.972;7.830;2022-09-01T08:01:14;17.30;99.90
4207;DHT22;2117;47.972;7.830;2022-09-01T08:03:44;17.40;99.90
4207;DHT22;2117;47.972;7.830;2022-09-01T08:06:12;17.40;99.90
4207;DHT22;2117;47.972;7.830;2022-09-01T08:08:39;17.50;99.90
4207;DHT22;2117;47.972;7.830;2022-09-01T08:11:05;17.60;99.90
4207;DHT22;2117;47.972;7.830;2022-09-01T08:13:32;17.70;99.90
4207;DHT22;2117;47.972;7.830;2022-09-01T08:15:58;17.80;99.90
4207;DHT22;2117;47.972;7.830;2022-09-01T08:18:27;17.90;99.90
4207;DHT22;2117;47.972;7.830;2022-09-01T08:20:52;18.00;99.90
4207;DHT22;2117;47.972;7.830;2022-09-01T08:23:18;18.00;99.90
4207;DHT22;2117;47.972;7.830;2022-09-01T08:25:45;18.10;99.90
4207;DHT22;2117;47.972;7.830;2022-09-01T08:28:12;18.10;99.90
4207;DHT22;2117;47.972;7.830;2022-09-01T08:30:40;18.20;99.90
4207;DHT22;2117;47.972;7.830;2022-09-01T08:33:07;18.30;99.90
4207;DHT22;2117;47.972;7.830;2022-09-01T08:35:37;18.40;99.90
4207;DHT22;2117;47.972;7.830;2022-09-01T08:38:03;18.50;99.90
4207;DHT22;2117;47.972;7.830;2022-09-01T08:40:28;18.70;99.90
4207;DHT22;2117;47.972;7.830;2022-09-01T08:43:15;18.70;99.90
4207;DHT22;2117;47.972;7.830;2022-09-01T08:45:52;18.90;99.90
4207;DHT22;2117;47.972;7.830;2022-09-01T08:48:59;19.10;99.90
4207;DHT22;2117;47.972;7.830;2022-09-01T08:57:04;19.20;99.90
4207;DHT22;2117;47.972;7.830;2022-09-01T08:59:30;19.30;99.90
4207;DHT22;2117;47.972;7.830;2022-09-01T09:05:34;19.20;99.90
4207;DHT22;2117;47.972;7.830;2022-09-01T09:10:53;19.30;99.90
4207;DHT22;2117;47.972;7.830;2022-09-01T09:13:31;19.30;99.90
4207;DHT22;2117;47.972;7.830;2022-09-01T09:16:07;19.30;99.90
4207;DHT22;2117;47.972;7.830;2022-09-01T09:18:46;19.30;99.90
4207;DHT22;2117;47.972;7.830;2022-09-01T09:21:24;19.30;99.90
4207;DHT22;2117;47.972;7.830;2022-09-01T09:23:59;19.40;99.90
4207;DHT22;2117;47.972;7.830;2022-09-01T09:26:25;19.40;99.90
4207;DHT22;2117;47.972;7.830;2022-09-01T09:28:51;19.40;99.90
4207;DHT22;2117;47.972;7.830;2022-09-01T09:31:39;19.40;99.90
4207;DHT22;2117;47.972;7.830;2022-09-01T09:34:32;19.50;99.90
4207;DHT22;2117;47.972;7.830;2022-09-01T09:42:29;19.80;99.90
4207;DHT22;2117;47.972;7.830;2022-09-01T09:44:55;19.90;99.90
4207;DHT22;2117;47.972;7.830;2022-09-01T09:47:38;20.00;99.90
4207;DHT22;2117;47.972;7.830;2022-09-01T09:58:33;20.20;99.90
4207;DHT22;2117;47.972;7.830;2022-09-01T10:01:03;20.30;99.90
4207;DHT22;2117;47.972;7.830;2022-09-01T10:03:47;20.30;99.90
4207;DHT22;2117;47.972;7.830;2022-09-01T10:08:54;20.50;99.90
4207;DHT22;2117;47.972;7.830;2022-09-01T10:13:52;20.70;99.90
4207;DHT22;2117;47.972;7.830;2022-09-01T10:16:26;20.70;99.90
4207;DHT22;2117;47.972;7.830;2022-09-01T10:18:54;20.70;99.90
4207;DHT22;2117;47.972;7.830;2022-09-01T10:21:36;20.80;99.90
4207;DHT22;2117;47.972;7.830;2022-09-01T10:24:51;20.80;99.90
4207;DHT22;2117;47.972;7.830;2022-09-01T10:26:56;21.00;99.90
4207;DHT22;2117;47.972;7.830;2022-09-01T10:29:27;21.20;99.90
4207;DHT22;2117;47.972;7.830;2022-09-01T10:31:54;21.20;99.90
4207;DHT22;2117;47.972;7.830;2022-09-01T10:34:22;21.20;99.90
4207;DHT22;2117;47.972;7.830;2022-09-01T10:36:48;21.20;99.90
4207;DHT22;2117;47.972;7.830;2022-09-01T10:39:17;21.40;99.90
4207;DHT22;2117;47.972;7.830;2022-09-01T10:44:20;21.70;99.90
4207;DHT22;2117;47.972;7.830;2022-09-01T10:46:46;21.70;99.90
4207;DHT22;2117;47.972;7.830;2022-09-01T10:51:53;21.90;99.90
4207;DHT22;2117;47.972;7.830;2022-09-01T11:06:30;22.70;99.90
4207;DHT22;2117;47.972;7.830;2022-09-01T11:08:45;23.10;99.90
4207;DHT22;2117;47.972;7.830;2022-09-01T11:13:54;23.50;99.90
4207;DHT22;2117;47.972;7.830;2022-09-01T11:16:36;24.10;99.90
4207;DHT22;2117;47.972;7.830;2022-09-01T11:21:46;24.80;99.90
4207;DHT22;2117;47.972;7.830;2022-09-01T11:27:09;25.40;99.90
4207;DHT22;2117;47.972;7.830;2022-09-01T11:32:21;26.10;99.90
4207;DHT22;2117;47.972;7.830;2022-09-01T11:34:50;26.50;99.90
4207;DHT22;2117;47.972;7.830;2022-09-01T11:37:20;27.00;99.90
4207;DHT22;2117;47.972;7.830;2022-09-01T11:39:52;27.70;99.90
4207;DHT22;2117;47.972;7.830;2022-09-01T11:42:25;28.20;99.90
4207;DHT22;2117;47.972;7.830;2022-09-01T11:47:43;28.60;99.90
4207;DHT22;2117;47.972;7.830;2022-09-01T11:50:37;28.70;99.90
4207;DHT22;2117;47.972;7.830;2022-09-01T11:53:12;29.00;99.90
4207;DHT22;2117;47.972;7.830;2022-09-01T11:55:41;29.20;99.90
4207;DHT22;2117;47.972;7.830;2022-09-01T11:58:28;29.40;99.90
4207;DHT22;2117;47.972;7.830;2022-09-01T12:01:12;29.20;99.90
4207;DHT22;2117;47.972;7.830;2022-09-01T12:03:38;29.40;99.90
4207;DHT22;2117;47.972;7.830;2022-09-01T12:06:07;30.00;99.90
4207;DHT22;2117;47.972;7.830;2022-09-01T12:08:40;30.50;99.90
4207;DHT22;2117;47.972;7.830;2022-09-01T12:11:11;30.60;99.90
4207;DHT22;2117;47.972;7.830;2022-09-01T12:16:21;29.50;99.90
4207;DHT22;2117;47.972;7.830;2022-09-01T12:18:49;29.50;99.90
4207;DHT22;2117;47.972;7.830;2022-09-01T12:21:23;29.80;99.10
4207;DHT22;2117;47.972;7.830;2022-09-01T12:23:49;29.90;99.90
4207;DHT22;2117;47.972;7.830;2022-09-01T12:26:25;29.80;99.50
4207;DHT22;2117;47.972;7.830;2022-09-01T12:28:51;29.60;99.90
4207;DHT22;2117;47.972;7.830;2022-09-01T12:31:21;30.30;99.90
4207;DHT22;2117;47.972;7.830;2022-09-01T12:33:48;30.60;99.90
4207;DHT22;2117;47.972;7.830;2022-09-01T12:38:41;29.90;98.40
4207;DHT22;2117;47.972;7.830;2022-09-01T12:41:36;29.30;99.60
4207;DHT22;2117;47.972;7.830;2022-09-01T12:44:28;29.20;99.70
4207;DHT22;2117;47.972;7.830;2022-09-01T12:46:56;28.80;99.90
4207;DHT22;2117;47.972;7.830;2022-09-01T12:49:25;28.60;99.90
4207;DHT22;2117;47.972;7.830;2022-09-01T12:54:47;29.40;99.90
4207;DHT22;2117;47.972;7.830;2022-09-01T12:57:50;29.60;99.20
4207;DHT22;2117;47.972;7.830;2022-09-01T13:00:29;29.10;99.10
4207;DHT22;2117;47.972;7.830;2022-09-01T13:05:35;28.70;99.20
4207;DHT22;2117;47.972;7.830;2022-09-01T13:08:06;28.30;98.30
4207;DHT22;2117;47.972;7.830;2022-09-01T13:10:38;28.20;99.90
4207;DHT22;2117;47.972;7.830;2022-09-01T13:13:05;28.30;99.90
4207;DHT22;2117;47.972;7.830;2022-09-01T13:15:32;29.00;99.30
4207;DHT22;2117;47.972;7.830;2022-09-01T13:17:58;29.70;99.70
4207;DHT22;2117;47.972;7.830;2022-09-01T13:20:24;30.50;98.00
4207;DHT22;2117;47.972;7.830;2022-09-01T13:22:50;30.50;98.40
4207;DHT22;2117;47.972;7.830;2022-09-01T13:25:19;31.20;97.40
4207;DHT22;2117;47.972;7.830;2022-09-01T13:27:46;31.50;95.90
4207;DHT22;2117;47.972;7.830;2022-09-01T13:30:18;32.10;95.50
4207;DHT22;2117;47.972;7.830;2022-09-01T13:32:45;32.20;93.30
4207;DHT22;2117;47.972;7.830;2022-09-01T13:35:16;32.60;94.50
4207;DHT22;2117;47.972;7.830;2022-09-01T13:37:44;33.10;94.00
4207;DHT22;2117;47.972;7.830;2022-09-01T13:40:11;33.50;92.90
4207;DHT22;2117;47.972;7.830;2022-09-01T13:42:44;33.60;91.70
4207;DHT22;2117;47.972;7.830;2022-09-01T13:45:11;33.80;91.80
4207;DHT22;2117;47.972;7.830;2022-09-01T13:47:41;34.00;91.90
4207;DHT22;2117;47.972;7.830;2022-09-01T13:50:08;33.70;91.20
4207;DHT22;2117;47.972;7.830;2022-09-01T13:52:36;33.20;91.30
4207;DHT22;2117;47.972;7.830;2022-09-01T13:55:02;32.50;90.20
4207;DHT22;2117;47.972;7.830;2022-09-01T13:57:28;31.80;91.40
4207;DHT22;2117;47.972;7.830;2022-09-01T13:59:55;31.50;92.30
4207;DHT22;2117;47.972;7.830;2022-09-01T14:02:20;31.70;91.60
4207;DHT22;2117;47.972;7.830;2022-09-01T14:04:46;32.10;88.80
4207;DHT22;2117;47.972;7.830;2022-09-01T14:07:12;32.40;90.20
4207;DHT22;2117;47.972;7.830;2022-09-01T14:09:37;32.70;90.20
4207;DHT22;2117;47.972;7.830;2022-09-01T14:12:03;32.70;88.20
4207;DHT22;2117;47.972;7.830;2022-09-01T14:14:29;33.00;89.30
4207;DHT22;2117;47.972;7.830;2022-09-01T14:16:57;33.10;85.70
4207;DHT22;2117;47.972;7.830;2022-09-01T14:19:23;33.30;85.00
4207;DHT22;2117;47.972;7.830;2022-09-01T14:21:49;33.50;83.80
4207;DHT22;2117;47.972;7.830;2022-09-01T14:24:14;33.70;84.90
4207;DHT22;2117;47.972;7.830;2022-09-01T14:26:44;33.70;82.40
4207;DHT22;2117;47.972;7.830;2022-09-01T14:29:10;33.80;83.50
4207;DHT22;2117;47.972;7.830;2022-09-01T14:31:36;33.90;82.50
4207;DHT22;2117;47.972;7.830;2022-09-01T14:34:02;33.90;83.80
4207;DHT22;2117;47.972;7.830;2022-09-01T14:36:28;33.90;86.20
4207;DHT22;2117;47.972;7.830;2022-09-01T14:38:54;34.00;84.40
4207;DHT22;2117;47.972;7.830;2022-09-01T14:41:21;33.90;83.00
4207;DHT22;2117;47.972;7.830;2022-09-01T14:43:50;34.00;86.00
4207;DHT22;2117;47.972;7.830;2022-09-01T14:46:17;33.70;83.50
4207;DHT22;2117;47.972;7.830;2022-09-01T14:48:43;33.60;83.30
4207;DHT22;2117;47.972;7.830;2022-09-01T14:51:22;33.50;81.10
4207;DHT22;2117;47.972;7.830;2022-09-01T14:53:48;33.60;81.10
4207;DHT22;2117;47.972;7.830;2022-09-01T14:56:14;33.70;82.50
4207;DHT22;2117;47.972;7.830;2022-09-01T14:58:43;33.70;80.20
4207;DHT22;2117;47.972;7.830;2022-09-01T15:01:11;33.80;80.30
4207;DHT22;2117;47.972;7.830;2022-09-01T15:03:37;34.00;78.60
4207;DHT22;2117;47.972;7.830;2022-09-01T15:06:03;34.20;79.70
4207;DHT22;2117;47.972;7.830;2022-09-01T15:08:29;34.20;78.20
4207;DHT22;2117;47.972;7.830;2022-09-01T15:10:54;34.40;76.10
4207;DHT22;2117;47.972;7.830;2022-09-01T15:13:20;34.50;76.50
4207;DHT22;2117;47.972;7.830;2022-09-01T15:15:45;34.40;77.60
4207;DHT22;2117;47.972;7.830;2022-09-01T15:18:11;34.30;79.50
4207;DHT22;2117;47.972;7.830;2022-09-01T15:20:41;34.30;79.60
4207;DHT22;2117;47.972;7.830;2022-09-01T15:23:12;34.10;79.00
4207;DHT22;2117;47.972;7.830;2022-09-01T15:25:38;34.00;78.90
4207;DHT22;2117;47.972;7.830;2022-09-01T15:28:04;33.80;79.00
4207;DHT22;2117;47.972;7.830;2022-09-01T15:30:30;33.30;77.20
4207;DHT22;2117;47.972;7.830;2022-09-01T15:32:56;33.20;79.10
4207;DHT22;2117;47.972;7.830;2022-09-01T15:35:22;32.80;78.90
4207;DHT22;2117;47.972;7.830;2022-09-01T15:37:49;32.40;80.70
4207;DHT22;2117;47.972;7.830;2022-09-01T15:40:16;31.20;82.20
4207;DHT22;2117;47.972;7.830;2022-09-01T15:42:42;31.20;82.90
4207;DHT22;2117;47.972;7.830;2022-09-01T15:45:11;30.60;83.20
4207;DHT22;2117;47.972;7.830;2022-09-01T15:47:37;30.20;85.90
4207;DHT22;2117;47.972;7.830;2022-09-01T15:50:05;29.80;86.50
4207;DHT22;2117;47.972;7.830;2022-09-01T15:52:31;29.40;85.60
4207;DHT22;2117;47.972;7.830;2022-09-01T15:54:57;28.90;88.40
4207;DHT22;2117;47.972;7.830;2022-09-01T15:57:23;28.60;89.50
4207;DHT22;2117;47.972;7.830;2022-09-01T15:59:49;28.40;87.20
4207;DHT22;2117;47.972;7.830;2022-09-01T16:02:14;28.30;88.30
4207;DHT22;2117;47.972;7.830;2022-09-01T16:04:42;28.10;90.10
4207;DHT22;2117;47.972;7.830;2022-09-01T16:07:08;27.90;89.10
4207;DHT22;2117;47.972;7.830;2022-09-01T16:09:34;27.70;90.50
4207;DHT22;2117;47.972;7.830;2022-09-01T16:12:01;27.50;88.70
4207;DHT22;2117;47.972;7.830;2022-09-01T16:14:27;27.30;90.60
4207;DHT22;2117;47.972;7.830;2022-09-01T16:22:12;27.10;91.40
4207;DHT22;2117;47.972;7.830;2022-09-01T16:24:46;26.80;90.20
4207;DHT22;2117;47.972;7.830;2022-09-01T16:27:17;26.70;91.20
4207;DHT22;2117;47.972;7.830;2022-09-01T16:29:47;26.50;90.80
4207;DHT22;2117;47.972;7.830;2022-09-01T16:32:14;26.40;91.50
4207;DHT22;2117;47.972;7.830;2022-09-01T16:34:42;26.30;92.50
4207;DHT22;2117;47.972;7.830;2022-09-01T16:40:14;26.00;91.90
4207;DHT22;2117;47.972;7.830;2022-09-01T16:45:49;25.70;91.40
4207;DHT22;2117;47.972;7.830;2022-09-01T16:48:29;25.50;91.60
4207;DHT22;2117;47.972;7.830;2022-09-01T16:53:46;25.10;92.50
4207;DHT22;2117;47.972;7.830;2022-09-01T16:59:42;25.00;92.00
4207;DHT22;2117;47.972;7.830;2022-09-01T17:04:48;24.70;93.20
4207;DHT22;2117;47.972;7.830;2022-09-01T17:07:27;24.60;92.00
4207;DHT22;2117;47.972;7.830;2022-09-01T17:20:24;23.90;93.30
4207;DHT22;2117;47.972;7.830;2022-09-01T17:22:52;23.80;92.50
4207;DHT22;2117;47.972;7.830;2022-09-01T17:25:32;23.80;93.00
4207;DHT22;2117;47.972;7.830;2022-09-01T17:28:07;23.70;93.10
4207;DHT22;2117;47.972;7.830;2022-09-01T17:30:39;23.60;92.90
4207;DHT22;2117;47.972;7.830;2022-09-01T17:33:13;23.60;93.20
4207;DHT22;2117;47.972;7.830;2022-09-01T17:38:57;23.50;95.00
4207;DHT22;2117;47.972;7.830;2022-09-01T17:41:50;23.30;93.50
4207;DHT22;2117;47.972;7.830;2022-09-01T17:52:43;23.10;94.10
4207;DHT22;2117;47.972;7.830;2022-09-01T17:55:50;23.00;94.60
4207;DHT22;2117;47.972;7.830;2022-09-01T18:01:27;22.90;96.00
4207;DHT22;2117;47.972;7.830;2022-09-01T18:06:50;23.00;95.30
4207;DHT22;2117;47.972;7.830;2022-09-01T18:09:19;23.00;95.10
4207;DHT22;2117;47.972;7.830;2022-09-01T18:11:59;22.90;95.20
4207;DHT22;2117;47.972;7.830;2022-09-01T18:14:51;22.90;95.40
4207;DHT22;2117;47.972;7.830;2022-09-01T18:17:33;22.80;94.70
4207;DHT22;2117;47.972;7.830;2022-09-01T18:25:27;22.40;95.40
4207;DHT22;2117;47.972;7.830;2022-09-01T18:27:56;22.30;96.10
4207;DHT22;2117;47.972;7.830;2022-09-01T18:30:21;22.20;96.50
4207;DHT22;2117;47.972;7.830;2022-09-01T18:33:00;22.10;96.90
4207;DHT22;2117;47.972;7.830;2022-09-01T18:35:44;22.10;96.50
4207;DHT22;2117;47.972;7.830;2022-09-01T18:44:23;21.90;96.50
4207;DHT22;2117;47.972;7.830;2022-09-01T18:47:05;21.70;96.60
4207;DHT22;2117;47.972;7.830;2022-09-01T18:57:51;21.60;97.60
4207;DHT22;2117;47.972;7.830;2022-09-01T19:00:23;21.50;97.50
4207;DHT22;2117;47.972;7.830;2022-09-01T19:03:07;21.50;97.70
4207;DHT22;2117;47.972;7.830;2022-09-01T19:11:05;21.30;98.20
4207;DHT22;2117;47.972;7.830;2022-09-01T19:19:45;21.10;98.50
4207;DHT22;2117;47.972;7.830;2022-09-01T19:25:06;20.90;98.70
4207;DHT22;2117;47.972;7.830;2022-09-01T19:30:27;20.90;98.60
4207;DHT22;2117;47.972;7.830;2022-09-01T19:32:56;20.90;98.40
4207;DHT22;2117;47.972;7.830;2022-09-01T19:35:25;20.80;98.50
4207;DHT22;2117;47.972;7.830;2022-09-01T19:37:51;20.80;98.40
4207;DHT22;2117;47.972;7.830;2022-09-01T19:40:32;20.70;98.70
4207;DHT22;2117;47.972;7.830;2022-09-01T19:43:07;20.70;98.40
4207;DHT22;2117;47.972;7.830;2022-09-01T19:48:50;20.70;98.60
4207;DHT22;2117;47.972;7.830;2022-09-01T19:51:26;20.70;98.90
4207;DHT22;2117;47.972;7.830;2022-09-01T19:54:28;20.70;98.90
4207;DHT22;2117;47.972;7.830;2022-09-01T20:00:01;20.50;99.10
4207;DHT22;2117;47.972;7.830;2022-09-01T20:02:33;20.50;99.20
4207;DHT22;2117;47.972;7.830;2022-09-01T20:07:49;20.50;99.10
4207;DHT22;2117;47.972;7.830;2022-09-01T20:13:25;20.40;99.90
4207;DHT22;2117;47.972;7.830;2022-09-01T20:18:46;20.40;99.90
4207;DHT22;2117;47.972;7.830;2022-09-01T20:21:14;20.40;99.90
4207;DHT22;2117;47.972;7.830;2022-09-01T20:23:46;20.30;99.90
4207;DHT22;2117;47.972;7.830;2022-09-01T20:26:19;20.30;99.90
4207;DHT22;2117;47.972;7.830;2022-09-01T20:31:25;20.20;99.90
4207;DHT22;2117;47.972;7.830;2022-09-01T20:37:03;20.10;99.90
4207;DHT22;2117;47.972;7.830;2022-09-01T20:39:45;20.10;99.90
4207;DHT22;2117;47.972;7.830;2022-09-01T20:45:19;20.10;99.90
4207;DHT22;2117;47.972;7.830;2022-09-01T20:48:25;20.10;99.90
4207;DHT22;2117;47.972;7.830;2022-09-01T20:51:01;19.90;99.90
4207;DHT22;2117;47.972;7.830;2022-09-01T20:58:42;19.90;99.90
4207;DHT22;2117;47.972;7.830;2022-09-01T21:01:16;19.80;99.90
4207;DHT22;2117;47.972;7.830;2022-09-01T21:06:50;19.80;99.90
4207;DHT22;2117;47.972;7.830;2022-09-01T21:17:42;19.70;99.90
4207;DHT22;2117;47.972;7.830;2022-09-01T21:22:59;19.60;99.90
4207;DHT22;2117;47.972;7.830;2022-09-01T21:25:25;19.60;99.90
4207;DHT22;2117;47.972;7.830;2022-09-01T21:27:54;19.60;99.90
4207;DHT22;2117;47.972;7.830;2022-09-01T21:30:21;19.60;99.90
4207;DHT22;2117;47.972;7.830;2022-09-01T21:32:48;19.50;99.90
4207;DHT22;2117;47.972;7.830;2022-09-01T21:35:18;19.50;99.90
4207;DHT22;2117;47.972;7.830;2022-09-01T21:37:44;19.50;99.90
4207;DHT22;2117;47.972;7.830;2022-09-01T21:40:10;19.50;99.90
4207;DHT22;2117;47.972;7.830;2022-09-01T21:42:46;19.40;99.90
4207;DHT22;2117;47.972;7.830;2022-09-01T21:45:15;19.40;99.90
4207;DHT22;2117;47.972;7.830;2022-09-01T21:47:43;19.40;99.90
4207;DHT22;2117;47.972;7.830;2022-09-01T21:50:09;19.30;99.90
4207;DHT22;2117;47.972;7.830;2022-09-01T21:52:36;19.30;99.90
4207;DHT22;2117;47.972;7.830;2022-09-01T21:55:01;19.30;99.90
4207;DHT22;2117;47.972;7.830;2022-09-01T21:57:27;19.20;99.90
4207;DHT22;2117;47.972;7.830;2022-09-01T21:59:53;19.20;99.90
4207;DHT22;2117;47.972;7.830;2022-09-01T22:02:18;19.20;99.90
4207;DHT22;2117;47.972;7.830;2022-09-01T22:04:45;19.20;99.90
4207;DHT22;2117;47.972;7.830;2022-09-01T22:07:11;19.20;99.90
4207;DHT22;2117;47.972;7.830;2022-09-01T22:09:40;19.20;99.90
4207;DHT22;2117;47.972;7.830;2022-09-01T22:12:07;19.10;99.90
4207;DHT22;2117;47.972;7.830;2022-09-01T22:14:32;19.10;99.90
4207;DHT22;2117;47.972;7.830;2022-09-01T22:16:58;19.10;99.90
4207;DHT22;2117;47.972;7.830;2022-09-01T22:19:24;19.00;99.90
4207;DHT22;2117;47.972;7.830;2022-09-01T22:21:50;19.00;99.90
4207;DHT22;2117;47.972;7.830;2022-09-01T22:24:17;19.00;99.90
4207;DHT22;2117;47.972;7.830;2022-09-01T22:26:43;19.00;99.90
4207;DHT22;2117;47.972;7.830;2022-09-01T22:29:09;18.90;99.90
